Springfield, SC (29146)

10:11 PM EDT on July 06, 2015 (GMT -0400)
Morgantown | | Change Station
CLOSE
Current Station
Personal Weather Station
Location: Springfield, SC
Elevation: 243 ft
Nearby Weather Stations

Elev 243 ft 33.48 °N, 81.24 °W | Updated 9 seconds ago

Clear
Clear
76.9 °F
Feels Like 78 °F
N
0.0
Wind Variable Wind from South
Gusts 0.0 mph

Today
High -- | Low -- °F
--% Chance of Precip.
Yesterday
High -- | Low -- °F
Precip. -- in
6:21 AM 8:38 PM
Waning Gibbous, 70% visible
Pressure 30.09 in
Visibility 10.0 miles
Clouds Clear
Heat Index 78 °F
Dew Point 73 °F
Humidity 88%
Rainfall 0.00 in
Snow Depth Not available.
UV 0.0 out of 12
Pollen 3.90 out of 12
Air Quality Not available.
Flu Activity Not available.
METAR KOGB 070153Z AUTO 19004KT 10SM CLR 26/22 A3010 RMK AO2 SLP188 T02610217

More Conditions Fewer Conditions

Pressure 30.09 in
Visibility 10.0 miles
Clouds Clear
Heat Index 78 °F
Dew Point 73 °F
Humidity 88%
Rainfall 0.00 in
Snow Depth Not available.
UV 0.0 out of 12
Pollen 3.90 out of 12
Air Quality Not available.
Flu Activity Not available.
METAR KOGB 070153Z AUTO 19004KT 10SM CLR 26/22 A3010 RMK AO2 SLP188 T02610217

More Conditions Fewer Conditions

10-Day Weather Forecast

×

Almanac

Astronomy

Jul. 06, 2015 Rise Set
Actual Time
Civil Twilight
Nautical Twilight
Astronomical Twilight
Moon
Length of Visible Light
Length of Day
Tomorrow will be .
, % of the Moon is Illuminated

Today's Extremes

State Highs State Lows

Community

WunderPhotos

Upload Photos

1,835,692 photos uploaded!

WunderBlogs® & News

Nearby

Air Quality

  Air Quality AQ Index Pollutant
Not available.

Snow Depth

Station Depth Elevation

Earthquake Activity

City Distance Mag. Time & Date
Minimum magnitude displayed is 2.5.

Coastal Water Temperatures

Place Temperature

Stations

Nearby Weather Stations

Station Location Temp. Windchill Dew Point Humidity Wind Precip. Elev Updated Type